sensor_id;sensor_type;location;lat;lon;timestamp;P1;durP1;ratioP1;P2;durP2;ratioP2
29732;SDS011;16643;43.158;25.302;2022-10-24T00:00:56;4.05;;;1.77;;
29732;SDS011;16643;43.158;25.302;2022-10-24T00:03:23;3.38;;;2.10;;
29732;SDS011;16643;43.158;25.302;2022-10-24T00:05:48;2.72;;;1.88;;
29732;SDS011;16643;43.158;25.302;2022-10-24T00:08:14;4.97;;;1.75;;
29732;SDS011;16643;43.158;25.302;2022-10-24T00:10:42;2.28;;;1.63;;
29732;SDS011;16643;43.158;25.302;2022-10-24T00:13:10;3.92;;;1.85;;
29732;SDS011;16643;43.158;25.302;2022-10-24T00:15:36;3.10;;;1.80;;
29732;SDS011;16643;43.158;25.302;2022-10-24T00:18:02;2.95;;;1.88;;
29732;SDS011;16643;43.158;25.302;2022-10-24T00:20:28;3.03;;;1.60;;
29732;SDS011;16643;43.158;25.302;2022-10-24T00:22:53;3.83;;;1.98;;
29732;SDS011;16643;43.158;25.302;2022-10-24T00:25:19;3.17;;;1.98;;
29732;SDS011;16643;43.158;25.302;2022-10-24T00:27:45;4.47;;;2.10;;
29732;SDS011;16643;43.158;25.302;2022-10-24T00:30:10;2.40;;;1.60;;
29732;SDS011;16643;43.158;25.302;2022-10-24T00:32:36;4.25;;;1.60;;
29732;SDS011;16643;43.158;25.302;2022-10-24T00:35:02;3.33;;;1.63;;
29732;SDS011;16643;43.158;25.302;2022-10-24T00:37:28;3.40;;;1.70;;
29732;SDS011;16643;43.158;25.302;2022-10-24T00:39:54;5.43;;;1.70;;
29732;SDS011;16643;43.158;25.302;2022-10-24T00:42:20;2.63;;;1.50;;
29732;SDS011;16643;43.158;25.302;2022-10-24T00:44:47;2.83;;;1.48;;
29732;SDS011;16643;43.158;25.302;2022-10-24T00:47:16;3.13;;;1.70;;
29732;SDS011;16643;43.158;25.302;2022-10-24T00:52:13;2.63;;;1.60;;
29732;SDS011;16643;43.158;25.302;2022-10-24T00:54:42;2.40;;;1.70;;
29732;SDS011;16643;43.158;25.302;2022-10-24T00:57:10;3.88;;;1.70;;
29732;SDS011;16643;43.158;25.302;2022-10-24T00:59:41;2.60;;;1.77;;
29732;SDS011;16643;43.158;25.302;2022-10-24T01:02:09;3.50;;;1.70;;
29732;SDS011;16643;43.158;25.302;2022-10-24T01:04:35;4.80;;;1.60;;
29732;SDS011;16643;43.158;25.302;2022-10-24T01:07:09;2.75;;;1.73;;
29732;SDS011;16643;43.158;25.302;2022-10-24T01:26:45;2.58;;;1.63;;
29732;SDS011;16643;43.158;25.302;2022-10-24T01:34:26;1.67;;;1.15;;
29732;SDS011;16643;43.158;25.302;2022-10-24T01:37:00;3.25;;;1.27;;
29732;SDS011;16643;43.158;25.302;2022-10-24T01:39:32;2.00;;;1.23;;
29732;SDS011;16643;43.158;25.302;2022-10-24T01:42:02;2.53;;;1.60;;
29732;SDS011;16643;43.158;25.302;2022-10-24T01:47:04;1.83;;;1.50;;
29732;SDS011;16643;43.158;25.302;2022-10-24T01:49:36;2.53;;;1.40;;
29732;SDS011;16643;43.158;25.302;2022-10-24T01:52:06;3.83;;;1.60;;
29732;SDS011;16643;43.158;25.302;2022-10-24T01:54:36;3.25;;;1.45;;
29732;SDS011;16643;43.158;25.302;2022-10-24T01:57:04;2.58;;;1.83;;
29732;SDS011;16643;43.158;25.302;2022-10-24T02:04:58;1.63;;;1.17;;
29732;SDS011;16643;43.158;25.302;2022-10-24T02:07:33;2.45;;;1.58;;
29732;SDS011;16643;43.158;25.302;2022-10-24T02:10:07;1.73;;;1.30;;
29732;SDS011;16643;43.158;25.302;2022-10-24T02:15:19;2.78;;;1.48;;
29732;SDS011;16643;43.158;25.302;2022-10-24T02:17:48;1.95;;;1.33;;
29732;SDS011;16643;43.158;25.302;2022-10-24T02:20:14;3.78;;;1.50;;
29732;SDS011;16643;43.158;25.302;2022-10-24T02:22:42;2.45;;;1.40;;
29732;SDS011;16643;43.158;25.302;2022-10-24T02:28:14;1.30;;;0.98;;
29732;SDS011;16643;43.158;25.302;2022-10-24T02:30:44;2.00;;;1.35;;
29732;SDS011;16643;43.158;25.302;2022-10-24T02:33:16;2.30;;;1.58;;
29732;SDS011;16643;43.158;25.302;2022-10-24T02:35:43;2.55;;;1.45;;
29732;SDS011;16643;43.158;25.302;2022-10-24T02:38:15;2.30;;;1.50;;
29732;SDS011;16643;43.158;25.302;2022-10-24T02:40:46;2.92;;;1.70;;
29732;SDS011;16643;43.158;25.302;2022-10-24T02:43:15;3.83;;;1.35;;
29732;SDS011;16643;43.158;25.302;2022-10-24T02:45:44;2.97;;;1.77;;
29732;SDS011;16643;43.158;25.302;2022-10-24T02:48:11;3.67;;;1.27;;
29732;SDS011;16643;43.158;25.302;2022-10-24T02:50:40;3.17;;;1.40;;
29732;SDS011;16643;43.158;25.302;2022-10-24T02:53:14;3.42;;;1.40;;
29732;SDS011;16643;43.158;25.302;2022-10-24T02:55:43;3.65;;;1.63;;
29732;SDS011;16643;43.158;25.302;2022-10-24T02:58:09;3.33;;;1.60;;
29732;SDS011;16643;43.158;25.302;2022-10-24T03:00:34;3.33;;;1.33;;
29732;SDS011;16643;43.158;25.302;2022-10-24T03:03:00;3.97;;;1.77;;
29732;SDS011;16643;43.158;25.302;2022-10-24T03:05:26;3.05;;;1.67;;
29732;SDS011;16643;43.158;25.302;2022-10-24T03:07:51;2.60;;;1.45;;
29732;SDS011;16643;43.158;25.302;2022-10-24T03:10:17;2.05;;;1.27;;
29732;SDS011;16643;43.158;25.302;2022-10-24T03:12:43;3.50;;;1.67;;
29732;SDS011;16643;43.158;25.302;2022-10-24T03:15:09;4.93;;;1.60;;
29732;SDS011;16643;43.158;25.302;2022-10-24T03:17:35;3.00;;;1.23;;
29732;SDS011;16643;43.158;25.302;2022-10-24T03:20:00;2.60;;;1.40;;
29732;SDS011;16643;43.158;25.302;2022-10-24T03:22:26;2.17;;;1.20;;
29732;SDS011;16643;43.158;25.302;2022-10-24T03:24:51;3.95;;;1.60;;
29732;SDS011;16643;43.158;25.302;2022-10-24T03:27:17;2.60;;;1.48;;
29732;SDS011;16643;43.158;25.302;2022-10-24T03:29:43;2.05;;;1.25;;
29732;SDS011;16643;43.158;25.302;2022-10-24T03:32:08;3.92;;;1.30;;
29732;SDS011;16643;43.158;25.302;2022-10-24T03:34:34;2.38;;;1.25;;
29732;SDS011;16643;43.158;25.302;2022-10-24T03:37:00;3.70;;;1.15;;
29732;SDS011;16643;43.158;25.302;2022-10-24T03:39:25;5.25;;;1.35;;
29732;SDS011;16643;43.158;25.302;2022-10-24T03:41:51;4.40;;;1.65;;
29732;SDS011;16643;43.158;25.302;2022-10-24T03:44:17;2.05;;;1.40;;
29732;SDS011;16643;43.158;25.302;2022-10-24T03:46:42;3.22;;;1.13;;
29732;SDS011;16643;43.158;25.302;2022-10-24T03:49:08;2.53;;;1.85;;
29732;SDS011;16643;43.158;25.302;2022-10-24T03:51:34;3.10;;;1.40;;
29732;SDS011;16643;43.158;25.302;2022-10-24T03:53:59;3.67;;;1.75;;
29732;SDS011;16643;43.158;25.302;2022-10-24T03:56:25;3.05;;;1.30;;
29732;SDS011;16643;43.158;25.302;2022-10-24T03:58:51;2.45;;;1.38;;
29732;SDS011;16643;43.158;25.302;2022-10-24T04:01:16;2.88;;;1.38;;
29732;SDS011;16643;43.158;25.302;2022-10-24T04:03:45;2.28;;;1.42;;
29732;SDS011;16643;43.158;25.302;2022-10-24T04:06:12;3.55;;;1.60;;
29732;SDS011;16643;43.158;25.302;2022-10-24T04:08:38;5.57;;;2.03;;
29732;SDS011;16643;43.158;25.302;2022-10-24T04:11:04;3.88;;;2.47;;
29732;SDS011;16643;43.158;25.302;2022-10-24T04:13:30;3.85;;;1.92;;
29732;SDS011;16643;43.158;25.302;2022-10-24T04:15:56;4.18;;;1.90;;
29732;SDS011;16643;43.158;25.302;2022-10-24T04:18:22;3.92;;;1.52;;
29732;SDS011;16643;43.158;25.302;2022-10-24T04:20:48;2.90;;;1.50;;
29732;SDS011;16643;43.158;25.302;2022-10-24T04:23:13;2.53;;;1.40;;
29732;SDS011;16643;43.158;25.302;2022-10-24T04:25:39;2.88;;;1.30;;
29732;SDS011;16643;43.158;25.302;2022-10-24T04:28:06;2.13;;;1.50;;
29732;SDS011;16643;43.158;25.302;2022-10-24T04:30:31;2.75;;;1.25;;
29732;SDS011;16643;43.158;25.302;2022-10-24T04:32:57;2.10;;;1.40;;
29732;SDS011;16643;43.158;25.302;2022-10-24T04:35:23;2.25;;;1.42;;
29732;SDS011;16643;43.158;25.302;2022-10-24T04:37:50;3.05;;;1.52;;
29732;SDS011;16643;43.158;25.302;2022-10-24T04:40:15;6.10;;;1.55;;
29732;SDS011;16643;43.158;25.302;2022-10-24T04:42:41;3.90;;;1.45;;
29732;SDS011;16643;43.158;25.302;2022-10-24T04:45:07;2.88;;;1.60;;
29732;SDS011;16643;43.158;25.302;2022-10-24T04:47:34;2.78;;;1.50;;
29732;SDS011;16643;43.158;25.302;2022-10-24T04:50:00;4.55;;;1.65;;
29732;SDS011;16643;43.158;25.302;2022-10-24T04:52:26;5.78;;;1.83;;
29732;SDS011;16643;43.158;25.302;2022-10-24T04:54:52;3.38;;;1.38;;
29732;SDS011;16643;43.158;25.302;2022-10-24T04:57:17;3.78;;;1.55;;
29732;SDS011;16643;43.158;25.302;2022-10-24T04:59:43;5.85;;;2.75;;
29732;SDS011;16643;43.158;25.302;2022-10-24T05:02:08;4.30;;;1.90;;
29732;SDS011;16643;43.158;25.302;2022-10-24T05:04:34;5.03;;;1.50;;
29732;SDS011;16643;43.158;25.302;2022-10-24T05:07:00;4.28;;;2.30;;
29732;SDS011;16643;43.158;25.302;2022-10-24T05:09:25;4.43;;;2.50;;
29732;SDS011;16643;43.158;25.302;2022-10-24T05:11:53;4.15;;;1.88;;
29732;SDS011;16643;43.158;25.302;2022-10-24T05:14:22;2.67;;;1.75;;
29732;SDS011;16643;43.158;25.302;2022-10-24T05:16:48;4.75;;;2.13;;
29732;SDS011;16643;43.158;25.302;2022-10-24T05:19:17;3.97;;;1.90;;
29732;SDS011;16643;43.158;25.302;2022-10-24T05:21:43;2.38;;;1.50;;
29732;SDS011;16643;43.158;25.302;2022-10-24T05:24:09;3.45;;;1.63;;
29732;SDS011;16643;43.158;25.302;2022-10-24T05:26:35;11.43;;;2.65;;
29732;SDS011;16643;43.158;25.302;2022-10-24T05:29:01;4.28;;;2.70;;
29732;SDS011;16643;43.158;25.302;2022-10-24T05:31:26;7.45;;;2.30;;
29732;SDS011;16643;43.158;25.302;2022-10-24T05:33:52;8.68;;;3.40;;
29732;SDS011;16643;43.158;25.302;2022-10-24T05:36:17;11.27;;;2.40;;
29732;SDS011;16643;43.158;25.302;2022-10-24T05:38:44;5.85;;;2.33;;
29732;SDS011;16643;43.158;25.302;2022-10-24T05:41:09;6.22;;;2.85;;
29732;SDS011;16643;43.158;25.302;2022-10-24T05:43:35;8.32;;;2.30;;
29732;SDS011;16643;43.158;25.302;2022-10-24T05:46:00;5.63;;;2.53;;
29732;SDS011;16643;43.158;25.302;2022-10-24T05:48:26;8.85;;;2.70;;
29732;SDS011;16643;43.158;25.302;2022-10-24T05:50:56;6.00;;;2.17;;
29732;SDS011;16643;43.158;25.302;2022-10-24T05:53:23;9.40;;;2.95;;
29732;SDS011;16643;43.158;25.302;2022-10-24T05:55:49;12.73;;;4.63;;
29732;SDS011;16643;43.158;25.302;2022-10-24T05:58:15;2.88;;;1.90;;
29732;SDS011;16643;43.158;25.302;2022-10-24T06:00:45;4.60;;;1.30;;
29732;SDS011;16643;43.158;25.302;2022-10-24T06:03:12;5.40;;;2.00;;
29732;SDS011;16643;43.158;25.302;2022-10-24T06:05:37;2.08;;;1.33;;
29732;SDS011;16643;43.158;25.302;2022-10-24T06:08:03;1.55;;;1.33;;
29732;SDS011;16643;43.158;25.302;2022-10-24T06:10:29;2.83;;;1.65;;
29732;SDS011;16643;43.158;25.302;2022-10-24T06:12:55;2.28;;;1.50;;
29732;SDS011;16643;43.158;25.302;2022-10-24T06:15:20;2.50;;;1.60;;
29732;SDS011;16643;43.158;25.302;2022-10-24T06:17:46;5.78;;;2.20;;
29732;SDS011;16643;43.158;25.302;2022-10-24T06:20:11;8.50;;;3.08;;
29732;SDS011;16643;43.158;25.302;2022-10-24T06:22:37;17.25;;;9.45;;
29732;SDS011;16643;43.158;25.302;2022-10-24T06:25:03;14.32;;;6.95;;
29732;SDS011;16643;43.158;25.302;2022-10-24T06:27:29;19.88;;;9.82;;
29732;SDS011;16643;43.158;25.302;2022-10-24T06:29:55;27.92;;;15.18;;
29732;SDS011;16643;43.158;25.302;2022-10-24T06:32:21;19.30;;;10.57;;
29732;SDS011;16643;43.158;25.302;2022-10-24T06:34:47;18.83;;;8.60;;
29732;SDS011;16643;43.158;25.302;2022-10-24T06:37:12;17.65;;;7.82;;
29732;SDS011;16643;43.158;25.302;2022-10-24T06:39:38;13.43;;;5.43;;
29732;SDS011;16643;43.158;25.302;2022-10-24T06:42:03;13.50;;;6.05;;
29732;SDS011;16643;43.158;25.302;2022-10-24T06:44:29;8.50;;;4.43;;
29732;SDS011;16643;43.158;25.302;2022-10-24T06:46:55;5.50;;;2.30;;
29732;SDS011;16643;43.158;25.302;2022-10-24T06:49:21;6.85;;;2.67;;
29732;SDS011;16643;43.158;25.302;2022-10-24T06:51:46;7.28;;;2.28;;
29732;SDS011;16643;43.158;25.302;2022-10-24T06:54:12;3.22;;;2.00;;
29732;SDS011;16643;43.158;25.302;2022-10-24T06:56:38;8.30;;;3.17;;
29732;SDS011;16643;43.158;25.302;2022-10-24T06:59:07;10.98;;;4.88;;
29732;SDS011;16643;43.158;25.302;2022-10-24T07:01:38;4.88;;;2.55;;
29732;SDS011;16643;43.158;25.302;2022-10-24T07:04:04;3.63;;;1.95;;
29732;SDS011;16643;43.158;25.302;2022-10-24T07:06:30;3.03;;;1.65;;
29732;SDS011;16643;43.158;25.302;2022-10-24T07:08:57;4.13;;;1.40;;
29732;SDS011;16643;43.158;25.302;2022-10-24T07:11:24;3.05;;;1.38;;
29732;SDS011;16643;43.158;25.302;2022-10-24T07:13:50;3.72;;;1.88;;
29732;SDS011;16643;43.158;25.302;2022-10-24T07:16:16;5.05;;;2.10;;
29732;SDS011;16643;43.158;25.302;2022-10-24T07:18:43;5.30;;;1.90;;
29732;SDS011;16643;43.158;25.302;2022-10-24T07:21:10;4.53;;;2.10;;
29732;SDS011;16643;43.158;25.302;2022-10-24T07:23:39;4.47;;;1.63;;
29732;SDS011;16643;43.158;25.302;2022-10-24T07:26:09;5.00;;;2.25;;
29732;SDS011;16643;43.158;25.302;2022-10-24T07:28:37;4.45;;;1.67;;
29732;SDS011;16643;43.158;25.302;2022-10-24T07:31:04;6.73;;;1.90;;
29732;SDS011;16643;43.158;25.302;2022-10-24T07:33:30;3.33;;;1.83;;
29732;SDS011;16643;43.158;25.302;2022-10-24T07:35:57;2.78;;;1.77;;
29732;SDS011;16643;43.158;25.302;2022-10-24T07:38:23;3.45;;;1.55;;
29732;SDS011;16643;43.158;25.302;2022-10-24T07:40:49;2.95;;;1.65;;
29732;SDS011;16643;43.158;25.302;2022-10-24T07:43:15;3.80;;;1.63;;
29732;SDS011;16643;43.158;25.302;2022-10-24T07:45:41;2.53;;;1.70;;
29732;SDS011;16643;43.158;25.302;2022-10-24T07:48:08;2.53;;;1.52;;
29732;SDS011;16643;43.158;25.302;2022-10-24T07:50:34;4.88;;;1.83;;
29732;SDS011;16643;43.158;25.302;2022-10-24T07:53:06;6.15;;;1.83;;
29732;SDS011;16643;43.158;25.302;2022-10-24T07:55:32;2.10;;;1.55;;
29732;SDS011;16643;43.158;25.302;2022-10-24T07:57:58;2.30;;;1.20;;
29732;SDS011;16643;43.158;25.302;2022-10-24T08:00:23;2.53;;;1.42;;
29732;SDS011;16643;43.158;25.302;2022-10-24T08:02:49;4.57;;;2.17;;
29732;SDS011;16643;43.158;25.302;2022-10-24T08:05:15;7.65;;;2.08;;
29732;SDS011;16643;43.158;25.302;2022-10-24T08:07:41;4.00;;;1.85;;
29732;SDS011;16643;43.158;25.302;2022-10-24T08:10:07;4.00;;;1.90;;
29732;SDS011;16643;43.158;25.302;2022-10-24T08:12:36;4.63;;;2.15;;
29732;SDS011;16643;43.158;25.302;2022-10-24T08:15:01;4.07;;;1.85;;
29732;SDS011;16643;43.158;25.302;2022-10-24T08:17:28;3.63;;;1.85;;
29732;SDS011;16643;43.158;25.302;2022-10-24T08:19:54;5.50;;;2.15;;
29732;SDS011;16643;43.158;25.302;2022-10-24T08:22:20;6.40;;;1.92;;
29732;SDS011;16643;43.158;25.302;2022-10-24T08:24:45;3.00;;;2.10;;
29732;SDS011;16643;43.158;25.302;2022-10-24T08:27:11;3.58;;;1.80;;
29732;SDS011;16643;43.158;25.302;2022-10-24T08:29:37;3.53;;;1.88;;
29732;SDS011;16643;43.158;25.302;2022-10-24T08:32:03;4.15;;;1.95;;
29732;SDS011;16643;43.158;25.302;2022-10-24T08:34:31;3.90;;;1.83;;
29732;SDS011;16643;43.158;25.302;2022-10-24T08:36:57;3.45;;;2.13;;
29732;SDS011;16643;43.158;25.302;2022-10-24T08:39:23;4.75;;;2.63;;
29732;SDS011;16643;43.158;25.302;2022-10-24T08:47:02;2.70;;;1.75;;
29732;SDS011;16643;43.158;25.302;2022-10-24T08:52:22;3.95;;;1.77;;
29732;SDS011;16643;43.158;25.302;2022-10-24T08:54:53;3.92;;;1.58;;
29732;SDS011;16643;43.158;25.302;2022-10-24T08:57:23;3.75;;;1.92;;
29732;SDS011;16643;43.158;25.302;2022-10-24T08:59:52;3.05;;;1.90;;
29732;SDS011;16643;43.158;25.302;2022-10-24T09:02:23;3.10;;;2.42;;
29732;SDS011;16643;43.158;25.302;2022-10-24T09:04:53;3.30;;;2.03;;
29732;SDS011;16643;43.158;25.302;2022-10-24T09:07:20;4.38;;;1.88;;
29732;SDS011;16643;43.158;25.302;2022-10-24T09:09:49;4.18;;;2.13;;
29732;SDS011;16643;43.158;25.302;2022-10-24T09:12:19;2.85;;;2.00;;
29732;SDS011;16643;43.158;25.302;2022-10-24T09:14:46;3.55;;;1.95;;
29732;SDS011;16643;43.158;25.302;2022-10-24T09:17:20;3.30;;;1.73;;
29732;SDS011;16643;43.158;25.302;2022-10-24T09:20:23;3.75;;;2.05;;
29732;SDS011;16643;43.158;25.302;2022-10-24T09:22:54;4.07;;;1.90;;
29732;SDS011;16643;43.158;25.302;2022-10-24T09:25:27;4.28;;;2.03;;
29732;SDS011;16643;43.158;25.302;2022-10-24T09:28:02;3.40;;;1.98;;
29732;SDS011;16643;43.158;25.302;2022-10-24T09:30:30;2.63;;;1.73;;
29732;SDS011;16643;43.158;25.302;2022-10-24T09:32:56;10.75;;;2.20;;
29732;SDS011;16643;43.158;25.302;2022-10-24T09:35:27;6.72;;;2.30;;
29732;SDS011;16643;43.158;25.302;2022-10-24T09:37:58;6.25;;;2.42;;
29732;SDS011;16643;43.158;25.302;2022-10-24T09:40:52;4.57;;;2.42;;
29732;SDS011;16643;43.158;25.302;2022-10-24T09:43:23;4.93;;;2.15;;
29732;SDS011;16643;43.158;25.302;2022-10-24T09:48:47;5.53;;;2.17;;
29732;SDS011;16643;43.158;25.302;2022-10-24T09:54:25;3.50;;;2.58;;
29732;SDS011;16643;43.158;25.302;2022-10-24T09:56:42;4.20;;;2.22;;
29732;SDS011;16643;43.158;25.302;2022-10-24T10:04:48;5.13;;;2.78;;
29732;SDS011;16643;43.158;25.302;2022-10-24T10:07:26;4.45;;;2.63;;
29732;SDS011;16643;43.158;25.302;2022-10-24T10:09:54;6.25;;;2.63;;
29732;SDS011;16643;43.158;25.302;2022-10-24T10:14:57;6.57;;;2.70;;
29732;SDS011;16643;43.158;25.302;2022-10-24T10:17:25;4.38;;;2.58;;
29732;SDS011;16643;43.158;25.302;2022-10-24T10:19:52;7.75;;;3.65;;
29732;SDS011;16643;43.158;25.302;2022-10-24T10:22:29;5.15;;;2.90;;
29732;SDS011;16643;43.158;25.302;2022-10-24T10:24:59;5.00;;;2.83;;
29732;SDS011;16643;43.158;25.302;2022-10-24T10:27:26;7.03;;;3.03;;
29732;SDS011;16643;43.158;25.302;2022-10-24T10:38:18;5.28;;;2.58;;
29732;SDS011;16643;43.158;25.302;2022-10-24T10:41:18;5.18;;;2.65;;
29732;SDS011;16643;43.158;25.302;2022-10-24T10:47:45;4.53;;;2.58;;
29732;SDS011;16643;43.158;25.302;2022-10-24T10:50:00;5.50;;;2.47;;
29732;SDS011;16643;43.158;25.302;2022-10-24T10:52:46;4.78;;;2.28;;
29732;SDS011;16643;43.158;25.302;2022-10-24T11:09:44;6.35;;;2.58;;
29732;SDS011;16643;43.158;25.302;2022-10-24T11:12:22;5.35;;;2.42;;
29732;SDS011;16643;43.158;25.302;2022-10-24T11:14:55;4.50;;;2.10;;
29732;SDS011;16643;43.158;25.302;2022-10-24T11:17:29;3.22;;;2.03;;
29732;SDS011;16643;43.158;25.302;2022-10-24T11:20:06;5.20;;;2.38;;
29732;SDS011;16643;43.158;25.302;2022-10-24T11:22:44;4.63;;;2.20;;
29732;SDS011;16643;43.158;25.302;2022-10-24T11:25:24;6.95;;;2.40;;
29732;SDS011;16643;43.158;25.302;2022-10-24T11:28:13;5.50;;;1.90;;
29732;SDS011;16643;43.158;25.302;2022-10-24T11:31:04;2.88;;;2.22;;
29732;SDS011;16643;43.158;25.302;2022-10-24T11:33:31;4.20;;;2.33;;
29732;SDS011;16643;43.158;25.302;2022-10-24T11:39:28;4.22;;;2.17;;
29732;SDS011;16643;43.158;25.302;2022-10-24T11:41:52;2.83;;;2.13;;
29732;SDS011;16643;43.158;25.302;2022-10-24T11:47:03;5.32;;;2.78;;
29732;SDS011;16643;43.158;25.302;2022-10-24T11:49:42;6.50;;;2.42;;
29732;SDS011;16643;43.158;25.302;2022-10-24T11:52:22;4.47;;;2.33;;
29732;SDS011;16643;43.158;25.302;2022-10-24T11:54:58;5.75;;;2.08;;
29732;SDS011;16643;43.158;25.302;2022-10-24T11:57:30;3.20;;;1.70;;
29732;SDS011;16643;43.158;25.302;2022-10-24T11:59:56;4.20;;;1.48;;
29732;SDS011;16643;43.158;25.302;2022-10-24T12:11:10;5.82;;;2.13;;
29732;SDS011;16643;43.158;25.302;2022-10-24T12:19:27;3.33;;;1.70;;
29732;SDS011;16643;43.158;25.302;2022-10-24T12:21:55;4.22;;;1.73;;
29732;SDS011;16643;43.158;25.302;2022-10-24T12:27:06;3.60;;;1.70;;
29732;SDS011;16643;43.158;25.302;2022-10-24T12:29:52;3.88;;;2.20;;
29732;SDS011;16643;43.158;25.302;2022-10-24T12:32:36;5.30;;;2.47;;
29732;SDS011;16643;43.158;25.302;2022-10-24T12:37:49;2.88;;;2.00;;
29732;SDS011;16643;43.158;25.302;2022-10-24T12:48:43;5.38;;;2.65;;
29732;SDS011;16643;43.158;25.302;2022-10-24T12:56:28;7.60;;;2.28;;
29732;SDS011;16643;43.158;25.302;2022-10-24T12:59:03;3.92;;;2.20;;
29732;SDS011;16643;43.158;25.302;2022-10-24T13:01:44;4.32;;;2.42;;
29732;SDS011;16643;43.158;25.302;2022-10-24T13:04:35;3.70;;;2.45;;
29732;SDS011;16643;43.158;25.302;2022-10-24T13:07:26;4.78;;;2.35;;
29732;SDS011;16643;43.158;25.302;2022-10-24T13:12:50;7.80;;;2.75;;
29732;SDS011;16643;43.158;25.302;2022-10-24T13:18:13;5.45;;;2.63;;
29732;SDS011;16643;43.158;25.302;2022-10-24T13:21:07;4.20;;;2.10;;
29732;SDS011;16643;43.158;25.302;2022-10-24T13:23:45;4.90;;;2.47;;
29732;SDS011;16643;43.158;25.302;2022-10-24T13:29:15;7.30;;;3.13;;
29732;SDS011;16643;43.158;25.302;2022-10-24T13:37:19;4.75;;;2.40;;
29732;SDS011;16643;43.158;25.302;2022-10-24T13:39:49;6.68;;;2.63;;
29732;SDS011;16643;43.158;25.302;2022-10-24T13:42:25;7.78;;;2.88;;
29732;SDS011;16643;43.158;25.302;2022-10-24T13:44:58;6.10;;;2.42;;
29732;SDS011;16643;43.158;25.302;2022-10-24T13:47:33;6.68;;;2.53;;
29732;SDS011;16643;43.158;25.302;2022-10-24T13:50:05;6.55;;;2.35;;
29732;SDS011;16643;43.158;25.302;2022-10-24T13:55:30;5.10;;;2.70;;
29732;SDS011;16643;43.158;25.302;2022-10-24T13:58:10;6.90;;;2.78;;
29732;SDS011;16643;43.158;25.302;2022-10-24T14:00:42;6.95;;;3.00;;
29732;SDS011;16643;43.158;25.302;2022-10-24T14:03:15;7.38;;;3.08;;
29732;SDS011;16643;43.158;25.302;2022-10-24T14:05:47;6.93;;;2.88;;
29732;SDS011;16643;43.158;25.302;2022-10-24T14:08:22;6.30;;;2.50;;
29732;SDS011;16643;43.158;25.302;2022-10-24T14:10:55;6.30;;;2.95;;
29732;SDS011;16643;43.158;25.302;2022-10-24T14:13:24;8.02;;;2.40;;
29732;SDS011;16643;43.158;25.302;2022-10-24T14:15:56;8.38;;;3.03;;
29732;SDS011;16643;43.158;25.302;2022-10-24T14:18:24;4.13;;;2.53;;
29732;SDS011;16643;43.158;25.302;2022-10-24T14:20:51;4.93;;;2.42;;
29732;SDS011;16643;43.158;25.302;2022-10-24T14:23:34;6.55;;;2.50;;
29732;SDS011;16643;43.158;25.302;2022-10-24T14:26:07;4.80;;;2.60;;
29732;SDS011;16643;43.158;25.302;2022-10-24T14:28:35;4.65;;;2.58;;
29732;SDS011;16643;43.158;25.302;2022-10-24T14:31:03;5.63;;;2.53;;
29732;SDS011;16643;43.158;25.302;2022-10-24T14:33:33;4.70;;;2.63;;
29732;SDS011;16643;43.158;25.302;2022-10-24T14:36:07;5.97;;;2.63;;
29732;SDS011;16643;43.158;25.302;2022-10-24T14:38:33;7.32;;;2.67;;
29732;SDS011;16643;43.158;25.302;2022-10-24T14:41:00;11.00;;;4.43;;
29732;SDS011;16643;43.158;25.302;2022-10-24T14:43:28;15.00;;;3.40;;
29732;SDS011;16643;43.158;25.302;2022-10-24T14:48:47;7.53;;;2.92;;
29732;SDS011;16643;43.158;25.302;2022-10-24T14:53:43;6.55;;;3.38;;
29732;SDS011;16643;43.158;25.302;2022-10-24T14:56:22;6.65;;;2.63;;
29732;SDS011;16643;43.158;25.302;2022-10-24T14:58:57;4.82;;;2.17;;
29732;SDS011;16643;43.158;25.302;2022-10-24T15:01:25;5.70;;;2.35;;
29732;SDS011;16643;43.158;25.302;2022-10-24T15:03:55;7.65;;;2.90;;
29732;SDS011;16643;43.158;25.302;2022-10-24T15:06:28;3.92;;;2.95;;
29732;SDS011;16643;43.158;25.302;2022-10-24T15:11:34;7.45;;;2.88;;
29732;SDS011;16643;43.158;25.302;2022-10-24T15:14:03;5.50;;;2.28;;
29732;SDS011;16643;43.158;25.302;2022-10-24T15:16:35;6.10;;;2.55;;
29732;SDS011;16643;43.158;25.302;2022-10-24T15:19:03;6.18;;;2.47;;
29732;SDS011;16643;43.158;25.302;2022-10-24T15:27:10;7.38;;;2.67;;
29732;SDS011;16643;43.158;25.302;2022-10-24T15:30:12;8.05;;;2.63;;
29732;SDS011;16643;43.158;25.302;2022-10-24T15:32:42;6.80;;;2.50;;
29732;SDS011;16643;43.158;25.302;2022-10-24T15:37:33;6.32;;;2.67;;
29732;SDS011;16643;43.158;25.302;2022-10-24T15:46:03;6.22;;;2.70;;
29732;SDS011;16643;43.158;25.302;2022-10-24T15:48:29;4.80;;;2.45;;
29732;SDS011;16643;43.158;25.302;2022-10-24T15:50:54;7.38;;;3.10;;
29732;SDS011;16643;43.158;25.302;2022-10-24T15:53:20;4.97;;;2.65;;
29732;SDS011;16643;43.158;25.302;2022-10-24T15:55:46;7.07;;;2.92;;
29732;SDS011;16643;43.158;25.302;2022-10-24T15:58:13;6.80;;;2.97;;
29732;SDS011;16643;43.158;25.302;2022-10-24T16:00:40;8.57;;;3.20;;
29732;SDS011;16643;43.158;25.302;2022-10-24T16:03:06;8.02;;;2.67;;
29732;SDS011;16643;43.158;25.302;2022-10-24T16:05:38;12.00;;;2.95;;
29732;SDS011;16643;43.158;25.302;2022-10-24T16:08:08;7.20;;;2.83;;
29732;SDS011;16643;43.158;25.302;2022-10-24T16:10:37;7.05;;;2.90;;
29732;SDS011;16643;43.158;25.302;2022-10-24T16:13:03;8.88;;;3.00;;
29732;SDS011;16643;43.158;25.302;2022-10-24T16:15:30;6.95;;;3.10;;
29732;SDS011;16643;43.158;25.302;2022-10-24T16:17:59;8.95;;;2.92;;
29732;SDS011;16643;43.158;25.302;2022-10-24T16:20:25;8.18;;;3.35;;
29732;SDS011;16643;43.158;25.302;2022-10-24T16:22:51;7.57;;;3.03;;
29732;SDS011;16643;43.158;25.302;2022-10-24T16:25:18;7.30;;;2.75;;
29732;SDS011;16643;43.158;25.302;2022-10-24T16:27:46;10.82;;;2.78;;
29732;SDS011;16643;43.158;25.302;2022-10-24T16:30:15;8.13;;;2.67;;
29732;SDS011;16643;43.158;25.302;2022-10-24T16:32:43;7.22;;;2.97;;
29732;SDS011;16643;43.158;25.302;2022-10-24T16:35:09;9.05;;;3.08;;
29732;SDS011;16643;43.158;25.302;2022-10-24T16:37:40;6.15;;;2.85;;
29732;SDS011;16643;43.158;25.302;2022-10-24T16:40:06;5.72;;;2.95;;
29732;SDS011;16643;43.158;25.302;2022-10-24T16:42:32;5.75;;;3.10;;
29732;SDS011;16643;43.158;25.302;2022-10-24T16:44:58;6.18;;;2.30;;
29732;SDS011;16643;43.158;25.302;2022-10-24T16:47:23;7.28;;;2.47;;
29732;SDS011;16643;43.158;25.302;2022-10-24T16:49:54;5.50;;;2.50;;
29732;SDS011;16643;43.158;25.302;2022-10-24T16:52:20;6.85;;;2.75;;
29732;SDS011;16643;43.158;25.302;2022-10-24T16:54:46;6.35;;;2.20;;
29732;SDS011;16643;43.158;25.302;2022-10-24T16:57:11;5.72;;;2.97;;
29732;SDS011;16643;43.158;25.302;2022-10-24T16:59:37;6.20;;;3.35;;
29732;SDS011;16643;43.158;25.302;2022-10-24T17:02:03;9.60;;;2.67;;
29732;SDS011;16643;43.158;25.302;2022-10-24T17:04:28;8.68;;;2.63;;
29732;SDS011;16643;43.158;25.302;2022-10-24T17:06:54;5.03;;;2.50;;
29732;SDS011;16643;43.158;25.302;2022-10-24T17:09:20;10.13;;;2.75;;
29732;SDS011;16643;43.158;25.302;2022-10-24T17:11:45;3.97;;;2.20;;
29732;SDS011;16643;43.158;25.302;2022-10-24T17:14:11;5.65;;;2.67;;
29732;SDS011;16643;43.158;25.302;2022-10-24T17:16:38;6.55;;;2.63;;
29732;SDS011;16643;43.158;25.302;2022-10-24T17:19:04;6.25;;;2.30;;
29732;SDS011;16643;43.158;25.302;2022-10-24T17:21:30;9.80;;;2.83;;
29732;SDS011;16643;43.158;25.302;2022-10-24T17:23:56;5.93;;;2.50;;
29732;SDS011;16643;43.158;25.302;2022-10-24T17:26:22;5.85;;;2.47;;
29732;SDS011;16643;43.158;25.302;2022-10-24T17:28:48;5.20;;;2.35;;